sensor_id;sensor_type;location;lat;lon;timestamp;P1;P2;P0
56495;PMS5003;42804;55.762;38.084;2022-12-29T00:01:09;9.50;6.50;4.00
56495;PMS5003;42804;55.762;38.084;2022-12-29T00:03:37;7.50;7.50;3.50
56495;PMS5003;42804;55.762;38.084;2022-12-29T00:06:05;6.00;3.00;0.00
56495;PMS5003;42804;55.762;38.084;2022-12-29T00:08:33;9.00;6.50;4.00
56495;PMS5003;42804;55.762;38.084;2022-12-29T00:11:08;9.00;7.00;4.00
56495;PMS5003;42804;55.762;38.084;2022-12-29T00:13:38;10.00;9.50;4.50
56495;PMS5003;42804;55.762;38.084;2022-12-29T00:16:24;4.50;4.50;1.50
56495;PMS5003;42804;55.762;38.084;2022-12-29T00:18:52;5.00;5.00;3.00
56495;PMS5003;42804;55.762;38.084;2022-12-29T00:21:21;7.50;6.50;3.25
56495;PMS5003;42804;55.762;38.084;2022-12-29T00:24:04;9.75;7.00;3.00
56495;PMS5003;42804;55.762;38.084;2022-12-29T00:26:50;9.00;6.50;3.25
56495;PMS5003;42804;55.762;38.084;2022-12-29T00:29:39;6.50;6.25;3.75
56495;PMS5003;42804;55.762;38.084;2022-12-29T00:32:25;9.75;9.50;4.00
56495;PMS5003;42804;55.762;38.084;2022-12-29T00:35:11;8.50;7.50;4.00
56495;PMS5003;42804;55.762;38.084;2022-12-29T00:37:41;6.00;6.00;3.00
56495;PMS5003;42804;55.762;38.084;2022-12-29T00:40:43;7.00;7.00;4.00
56495;PMS5003;42804;55.762;38.084;2022-12-29T00:43:28;7.75;5.50;1.00
56495;PMS5003;42804;55.762;38.084;2022-12-29T00:46:15;3.25;2.50;0.75
56495;PMS5003;42804;55.762;38.084;2022-12-29T00:48:46;5.00;4.00;1.00
56495;PMS5003;42804;55.762;38.084;2022-12-29T00:51:31;5.00;4.00;3.00
56495;PMS5003;42804;55.762;38.084;2022-12-29T00:53:59;4.50;4.50;2.00
56495;PMS5003;42804;55.762;38.084;2022-12-29T00:56:28;3.00;3.00;1.00
56495;PMS5003;42804;55.762;38.084;2022-12-29T00:58:59;5.50;4.00;1.00
56495;PMS5003;42804;55.762;38.084;2022-12-29T01:01:29;6.25;2.00;0.00
56495;PMS5003;42804;55.762;38.084;2022-12-29T01:03:57;3.50;3.25;1.00
56495;PMS5003;42804;55.762;38.084;2022-12-29T01:06:30;3.75;3.50;1.00
56495;PMS5003;42804;55.762;38.084;2022-12-29T01:08:58;5.50;3.00;1.00
56495;PMS5003;42804;55.762;38.084;2022-12-29T01:11:44;3.50;3.50;2.00
56495;PMS5003;42804;55.762;38.084;2022-12-29T01:14:13;3.25;3.00;1.50
56495;PMS5003;42804;55.762;38.084;2022-12-29T01:16:45;4.25;2.50;0.50
56495;PMS5003;42804;55.762;38.084;2022-12-29T01:19:13;3.75;3.00;1.00
56495;PMS5003;42804;55.762;38.084;2022-12-29T01:21:43;6.00;6.00;3.00
56495;PMS5003;42804;55.762;38.084;2022-12-29T01:24:12;4.00;3.50;1.00
56495;PMS5003;42804;55.762;38.084;2022-12-29T01:26:40;1.00;1.00;0.00
56495;PMS5003;42804;55.762;38.084;2022-12-29T01:29:08;3.00;3.00;1.00
56495;PMS5003;42804;55.762;38.084;2022-12-29T01:31:36;0.25;0.00;0.00
56495;PMS5003;42804;55.762;38.084;2022-12-29T01:34:06;4.50;4.50;1.50
56495;PMS5003;42804;55.762;38.084;2022-12-29T01:36:34;3.50;3.50;2.00
56495;PMS5003;42804;55.762;38.084;2022-12-29T01:39:03;5.60;5.60;1.00
56495;PMS5003;42804;55.762;38.084;2022-12-29T01:41:31;3.50;3.50;1.00
56495;PMS5003;42804;55.762;38.084;2022-12-29T01:44:00;2.00;2.00;1.00
56495;PMS5003;42804;55.762;38.084;2022-12-29T01:46:30;6.00;4.80;3.00
56495;PMS5003;42804;55.762;38.084;2022-12-29T01:49:02;2.75;1.00;0.00
56495;PMS5003;42804;55.762;38.084;2022-12-29T01:51:35;4.00;3.00;1.00
56495;PMS5003;42804;55.762;38.084;2022-12-29T01:54:07;3.00;2.60;1.40
56495;PMS5003;42804;55.762;38.084;2022-12-29T01:56:37;4.00;2.00;0.00
56495;PMS5003;42804;55.762;38.084;2022-12-29T01:59:06;0.50;0.50;0.25
56495;PMS5003;42804;55.762;38.084;2022-12-29T02:01:35;1.00;0.00;0.00
56495;PMS5003;42804;55.762;38.084;2022-12-29T02:04:04;3.75;3.00;1.00
56495;PMS5003;42804;55.762;38.084;2022-12-29T02:06:34;3.20;3.00;1.80
56495;PMS5003;42804;55.762;38.084;2022-12-29T02:09:05;3.25;2.50;1.00
56495;PMS5003;42804;55.762;38.084;2022-12-29T02:11:33;3.00;3.00;1.00
56495;PMS5003;42804;55.762;38.084;2022-12-29T02:14:05;3.75;3.00;1.00
56495;PMS5003;42804;55.762;38.084;2022-12-29T02:16:39;3.80;3.20;0.80
56495;PMS5003;42804;55.762;38.084;2022-12-29T02:19:19;3.75;3.50;0.00
56495;PMS5003;42804;55.762;38.084;2022-12-29T02:22:04;0.00;0.00;0.00
56495;PMS5003;42804;55.762;38.084;2022-12-29T02:30:03;0.00;0.00;0.00
56495;PMS5003;42804;55.762;38.084;2022-12-29T02:32:37;3.60;1.40;0.00
56495;PMS5003;42804;55.762;38.084;2022-12-29T02:35:08;0.00;0.00;0.00
56495;PMS5003;42804;55.762;38.084;2022-12-29T02:37:41;0.00;0.00;0.00
56495;PMS5003;42804;55.762;38.084;2022-12-29T02:40:14;0.00;0.00;0.00
56495;PMS5003;42804;55.762;38.084;2022-12-29T02:42:46;0.00;0.00;0.00
56495;PMS5003;42804;55.762;38.084;2022-12-29T02:45:19;0.00;0.00;0.00
56495;PMS5003;42804;55.762;38.084;2022-12-29T02:47:53;2.50;1.00;0.00
56495;PMS5003;42804;55.762;38.084;2022-12-29T02:50:32;0.50;0.00;0.00
56495;PMS5003;42804;55.762;38.084;2022-12-29T02:53:04;0.50;0.50;0.00
56495;PMS5003;42804;55.762;38.084;2022-12-29T02:55:34;0.50;0.50;0.00
56495;PMS5003;42804;55.762;38.084;2022-12-29T02:58:13;1.00;0.00;0.00
56495;PMS5003;42804;55.762;38.084;2022-12-29T03:00:48;0.50;0.00;0.00
56495;PMS5003;42804;55.762;38.084;2022-12-29T03:03:26;0.50;0.00;0.00
56495;PMS5003;42804;55.762;38.084;2022-12-29T03:06:03;1.00;1.00;0.25
56495;PMS5003;42804;55.762;38.084;2022-12-29T03:08:34;1.50;0.25;0.00
56495;PMS5003;42804;55.762;38.084;2022-12-29T03:11:07;1.00;1.00;0.00
56495;PMS5003;42804;55.762;38.084;2022-12-29T03:13:59;3.00;3.00;1.00
56495;PMS5003;42804;55.762;38.084;2022-12-29T03:16:47;2.00;1.00;0.50
56495;PMS5003;42804;55.762;38.084;2022-12-29T03:19:21;4.50;3.75;2.00
56495;PMS5003;42804;55.762;38.084;2022-12-29T03:21:52;0.75;0.75;0.00
56495;PMS5003;42804;55.762;38.084;2022-12-29T03:25:13;3.75;3.75;2.50
56495;PMS5003;42804;55.762;38.084;2022-12-29T03:27:47;3.50;3.50;1.00
56495;PMS5003;42804;55.762;38.084;2022-12-29T03:30:18;3.50;3.00;1.00
56495;PMS5003;42804;55.762;38.084;2022-12-29T03:32:49;3.50;3.50;1.00
56495;PMS5003;42804;55.762;38.084;2022-12-29T03:35:22;6.75;4.50;1.00
56495;PMS5003;42804;55.762;38.084;2022-12-29T03:37:57;7.00;5.00;3.00
56495;PMS5003;42804;55.762;38.084;2022-12-29T03:40:26;7.00;7.00;3.00
56495;PMS5003;42804;55.762;38.084;2022-12-29T03:42:55;3.75;2.00;1.00
56495;PMS5003;42804;55.762;38.084;2022-12-29T03:45:24;4.00;2.75;0.00
56495;PMS5003;42804;55.762;38.084;2022-12-29T03:47:52;5.00;4.50;3.00
56495;PMS5003;42804;55.762;38.084;2022-12-29T03:50:24;10.00;7.50;3.50
56495;PMS5003;42804;55.762;38.084;2022-12-29T03:52:52;6.00;6.00;3.00
56495;PMS5003;42804;55.762;38.084;2022-12-29T03:55:21;7.00;6.00;3.00
56495;PMS5003;42804;55.762;38.084;2022-12-29T03:57:49;5.00;3.75;1.00
56495;PMS5003;42804;55.762;38.084;2022-12-29T04:00:25;5.50;4.00;1.50
56495;PMS5003;42804;55.762;38.084;2022-12-29T04:02:55;4.00;0.75;0.00
56495;PMS5003;42804;55.762;38.084;2022-12-29T04:05:25;4.00;3.00;1.00
56495;PMS5003;42804;55.762;38.084;2022-12-29T04:07:54;6.00;5.00;3.00
56495;PMS5003;42804;55.762;38.084;2022-12-29T04:10:22;5.50;3.00;1.00
56495;PMS5003;42804;55.762;38.084;2022-12-29T04:12:55;6.50;5.50;2.50
56495;PMS5003;42804;55.762;38.084;2022-12-29T04:15:24;9.50;6.25;3.00
56495;PMS5003;42804;55.762;38.084;2022-12-29T04:17:53;3.00;2.00;0.50
56495;PMS5003;42804;55.762;38.084;2022-12-29T04:20:21;6.75;6.00;3.00
56495;PMS5003;42804;55.762;38.084;2022-12-29T04:23:17;6.00;5.00;0.75
56495;PMS5003;42804;55.762;38.084;2022-12-29T04:25:46;4.20;3.00;0.00
56495;PMS5003;42804;55.762;38.084;2022-12-29T04:28:15;9.75;7.00;3.50
56495;PMS5003;42804;55.762;38.084;2022-12-29T04:31:05;8.60;7.40;4.00
56495;PMS5003;42804;55.762;38.084;2022-12-29T04:33:39;8.25;6.50;3.50
56495;PMS5003;42804;55.762;38.084;2022-12-29T04:36:08;12.00;9.75;6.00
56495;PMS5003;42804;55.762;38.084;2022-12-29T04:38:38;7.00;5.00;1.50
56495;PMS5003;42804;55.762;38.084;2022-12-29T04:41:08;9.75;9.00;4.00
56495;PMS5003;42804;55.762;38.084;2022-12-29T04:43:38;9.00;7.00;1.00
56495;PMS5003;42804;55.762;38.084;2022-12-29T04:46:06;9.50;9.00;3.00
56495;PMS5003;42804;55.762;38.084;2022-12-29T04:48:49;6.00;5.50;3.00
56495;PMS5003;42804;55.762;38.084;2022-12-29T04:51:36;9.75;6.75;3.75
56495;PMS5003;42804;55.762;38.084;2022-12-29T04:54:09;6.50;4.00;3.00
56495;PMS5003;42804;55.762;38.084;2022-12-29T04:56:38;5.00;4.00;1.00
56495;PMS5003;42804;55.762;38.084;2022-12-29T04:59:06;7.00;7.00;4.00
56495;PMS5003;42804;55.762;38.084;2022-12-29T05:01:34;9.25;7.50;4.00
56495;PMS5003;42804;55.762;38.084;2022-12-29T05:04:03;9.50;5.00;3.00
56495;PMS5003;42804;55.762;38.084;2022-12-29T05:06:31;4.25;4.25;3.25
56495;PMS5003;42804;55.762;38.084;2022-12-29T05:09:00;7.00;6.00;1.00
56495;PMS5003;42804;55.762;38.084;2022-12-29T05:11:30;6.00;4.00;3.00
56495;PMS5003;42804;55.762;38.084;2022-12-29T05:13:59;10.75;7.00;4.00
56495;PMS5003;42804;55.762;38.084;2022-12-29T05:16:28;7.75;4.00;3.00
56495;PMS5003;42804;55.762;38.084;2022-12-29T05:18:57;4.50;4.00;2.00
56495;PMS5003;42804;55.762;38.084;2022-12-29T05:21:25;6.50;5.00;2.00
56495;PMS5003;42804;55.762;38.084;2022-12-29T05:23:54;6.50;4.00;1.50
56495;PMS5003;42804;55.762;38.084;2022-12-29T05:26:23;7.00;6.50;3.00
56495;PMS5003;42804;55.762;38.084;2022-12-29T05:29:03;3.00;3.00;1.00
56495;PMS5003;42804;55.762;38.084;2022-12-29T05:31:32;15.00;7.00;3.00
56495;PMS5003;42804;55.762;38.084;2022-12-29T05:34:00;9.25;6.50;3.50
56495;PMS5003;42804;55.762;38.084;2022-12-29T05:36:30;8.00;8.00;4.00
56495;PMS5003;42804;55.762;38.084;2022-12-29T05:39:04;5.50;4.00;0.00
56495;PMS5003;42804;55.762;38.084;2022-12-29T05:41:35;8.50;7.25;1.00
56495;PMS5003;42804;55.762;38.084;2022-12-29T05:44:40;8.50;7.00;3.00
56495;PMS5003;42804;55.762;38.084;2022-12-29T05:47:23;9.00;8.50;4.00
56495;PMS5003;42804;55.762;38.084;2022-12-29T05:50:10;13.20;10.80;6.00
56495;PMS5003;42804;55.762;38.084;2022-12-29T05:52:58;14.50;12.00;7.00
56495;PMS5003;42804;55.762;38.084;2022-12-29T05:55:26;13.40;8.80;6.20
56495;PMS5003;42804;55.762;38.084;2022-12-29T05:57:54;10.20;9.60;6.40
56495;PMS5003;42804;55.762;38.084;2022-12-29T06:00:24;6.75;6.75;4.00
56495;PMS5003;42804;55.762;38.084;2022-12-29T06:02:52;10.40;9.40;4.40
56495;PMS5003;42804;55.762;38.084;2022-12-29T06:05:21;12.60;12.40;6.00
56495;PMS5003;42804;55.762;38.084;2022-12-29T06:07:49;9.50;7.50;3.50
56495;PMS5003;42804;55.762;38.084;2022-12-29T06:10:17;10.00;9.50;4.25
56495;PMS5003;42804;55.762;38.084;2022-12-29T06:12:54;4.00;3.50;0.00
56495;PMS5003;42804;55.762;38.084;2022-12-29T06:15:24;11.50;9.25;6.00
56495;PMS5003;42804;55.762;38.084;2022-12-29T06:17:53;8.60;7.80;4.40
56495;PMS5003;42804;55.762;38.084;2022-12-29T06:20:22;13.00;9.00;6.00
56495;PMS5003;42804;55.762;38.084;2022-12-29T06:22:51;12.25;10.00;6.00
56495;PMS5003;42804;55.762;38.084;2022-12-29T06:25:19;8.00;6.50;1.00
56495;PMS5003;42804;55.762;38.084;2022-12-29T06:27:47;12.50;10.00;6.00
56495;PMS5003;42804;55.762;38.084;2022-12-29T06:30:16;12.00;9.75;5.00
56495;PMS5003;42804;55.762;38.084;2022-12-29T06:32:46;11.75;11.00;6.00
56495;PMS5003;42804;55.762;38.084;2022-12-29T06:35:14;12.50;9.75;4.00
56495;PMS5003;42804;55.762;38.084;2022-12-29T06:37:49;11.00;9.75;6.00
56495;PMS5003;42804;55.762;38.084;2022-12-29T06:40:17;39.40;32.40;20.60
56495;PMS5003;42804;55.762;38.084;2022-12-29T06:43:05;13.80;12.00;5.60
56495;PMS5003;42804;55.762;38.084;2022-12-29T06:45:52;10.00;9.50;6.75
56495;PMS5003;42804;55.762;38.084;2022-12-29T06:48:22;12.00;10.80;6.00
56495;PMS5003;42804;55.762;38.084;2022-12-29T06:50:51;14.20;13.80;7.80
56495;PMS5003;42804;55.762;38.084;2022-12-29T06:53:19;10.00;9.60;6.60
56495;PMS5003;42804;55.762;38.084;2022-12-29T06:55:47;19.80;16.20;9.20
56495;PMS5003;42804;55.762;38.084;2022-12-29T06:58:16;18.00;12.00;7.00
56495;PMS5003;42804;55.762;38.084;2022-12-29T07:00:44;11.60;10.80;6.00
56495;PMS5003;42804;55.762;38.084;2022-12-29T07:03:12;12.20;10.80;5.20
56495;PMS5003;42804;55.762;38.084;2022-12-29T07:05:42;14.75;13.50;6.25
56495;PMS5003;42804;55.762;38.084;2022-12-29T07:08:10;41.40;34.80;21.60
56495;PMS5003;42804;55.762;38.084;2022-12-29T07:10:38;53.60;45.40;28.00
56495;PMS5003;42804;55.762;38.084;2022-12-29T07:13:07;20.00;15.25;9.00
56495;PMS5003;42804;55.762;38.084;2022-12-29T07:15:35;18.25;15.75;9.00
56495;PMS5003;42804;55.762;38.084;2022-12-29T07:18:04;14.00;13.00;9.00
56495;PMS5003;42804;55.762;38.084;2022-12-29T07:20:33;14.00;12.25;6.25
56495;PMS5003;42804;55.762;38.084;2022-12-29T07:23:03;27.25;20.25;10.00
56495;PMS5003;42804;55.762;38.084;2022-12-29T07:25:31;18.20;17.60;12.00
56495;PMS5003;42804;55.762;38.084;2022-12-29T07:27:59;21.80;19.00;11.60
56495;PMS5003;42804;55.762;38.084;2022-12-29T07:30:27;20.80;18.20;11.20
56495;PMS5003;42804;55.762;38.084;2022-12-29T07:32:56;18.50;15.00;7.00
56495;PMS5003;42804;55.762;38.084;2022-12-29T07:35:24;18.75;16.50;12.00
56495;PMS5003;42804;55.762;38.084;2022-12-29T07:37:52;19.00;18.60;12.00
56495;PMS5003;42804;55.762;38.084;2022-12-29T07:40:22;18.40;17.00;11.00
56495;PMS5003;42804;55.762;38.084;2022-12-29T07:42:50;16.40;15.20;12.00
56495;PMS5003;42804;55.762;38.084;2022-12-29T07:45:28;15.00;12.60;9.60
56495;PMS5003;42804;55.762;38.084;2022-12-29T07:48:07;13.60;12.00;9.60
56495;PMS5003;42804;55.762;38.084;2022-12-29T07:50:36;23.20;19.80;10.80
56495;PMS5003;42804;55.762;38.084;2022-12-29T07:53:04;24.25;17.25;11.50
56495;PMS5003;42804;55.762;38.084;2022-12-29T07:55:34;18.75;17.00;6.75
56495;PMS5003;42804;55.762;38.084;2022-12-29T07:58:02;15.60;13.80;6.60
56495;PMS5003;42804;55.762;38.084;2022-12-29T08:00:30;19.20;16.20;9.20
56495;PMS5003;42804;55.762;38.084;2022-12-29T08:02:59;10.50;10.00;6.25
56495;PMS5003;42804;55.762;38.084;2022-12-29T08:05:27;20.50;11.50;7.00
56495;PMS5003;42804;55.762;38.084;2022-12-29T08:07:55;15.50;15.50;9.25
56495;PMS5003;42804;55.762;38.084;2022-12-29T08:10:24;12.00;9.00;3.50
56495;PMS5003;42804;55.762;38.084;2022-12-29T08:12:53;14.25;11.50;9.00
56495;PMS5003;42804;55.762;38.084;2022-12-29T08:15:21;16.50;16.00;8.00
56495;PMS5003;42804;55.762;38.084;2022-12-29T08:17:58;13.75;12.00;6.00
56495;PMS5003;42804;55.762;38.084;2022-12-29T08:20:26;20.60;18.80;9.00
56495;PMS5003;42804;55.762;38.084;2022-12-29T08:22:54;20.75;18.25;9.75
56495;PMS5003;42804;55.762;38.084;2022-12-29T08:25:23;23.25;20.50;10.50
56495;PMS5003;42804;55.762;38.084;2022-12-29T08:27:51;21.75;19.00;10.00
56495;PMS5003;42804;55.762;38.084;2022-12-29T08:30:20;17.50;17.00;9.25
56495;PMS5003;42804;55.762;38.084;2022-12-29T08:32:49;20.00;18.50;10.50
56495;PMS5003;42804;55.762;38.084;2022-12-29T08:35:18;21.00;19.00;10.00
56495;PMS5003;42804;55.762;38.084;2022-12-29T08:37:46;21.25;20.50;12.25
56495;PMS5003;42804;55.762;38.084;2022-12-29T08:40:14;18.25;17.50;12.00
56495;PMS5003;42804;55.762;38.084;2022-12-29T08:42:43;21.25;19.00;13.00
56495;PMS5003;42804;55.762;38.084;2022-12-29T08:45:11;27.25;24.00;13.00
56495;PMS5003;42804;55.762;38.084;2022-12-29T08:47:41;23.50;18.75;6.75
56495;PMS5003;42804;55.762;38.084;2022-12-29T08:50:09;25.25;19.25;10.25
56495;PMS5003;42804;55.762;38.084;2022-12-29T08:52:37;27.00;22.50;12.00
56495;PMS5003;42804;55.762;38.084;2022-12-29T08:55:06;23.50;21.00;12.00
56495;PMS5003;42804;55.762;38.084;2022-12-29T08:57:35;25.00;23.50;12.50
56495;PMS5003;42804;55.762;38.084;2022-12-29T09:00:10;27.00;21.00;11.50
56495;PMS5003;42804;55.762;38.084;2022-12-29T09:02:40;31.50;26.25;14.50
56495;PMS5003;42804;55.762;38.084;2022-12-29T09:05:09;28.20;24.80;15.00
56495;PMS5003;42804;55.762;38.084;2022-12-29T09:07:37;25.60;23.80;13.40
56495;PMS5003;42804;55.762;38.084;2022-12-29T09:12:59;25.00;21.60;12.20
56495;PMS5003;42804;55.762;38.084;2022-12-29T09:15:28;25.80;21.20;15.00
56495;PMS5003;42804;55.762;38.084;2022-12-29T09:17:57;20.00;19.00;11.80
56495;PMS5003;42804;55.762;38.084;2022-12-29T09:20:26;24.40;20.60;10.80
56495;PMS5003;42804;55.762;38.084;2022-12-29T09:22:54;23.20;21.00;12.00
56495;PMS5003;42804;55.762;38.084;2022-12-29T09:25:22;18.00;17.20;13.40
56495;PMS5003;42804;55.762;38.084;2022-12-29T09:27:51;18.00;16.00;8.20
56495;PMS5003;42804;55.762;38.084;2022-12-29T09:30:21;18.60;16.00;9.20
56495;PMS5003;42804;55.762;38.084;2022-12-29T09:32:49;17.80;17.60;10.40
56495;PMS5003;42804;55.762;38.084;2022-12-29T09:35:22;20.20;19.00;9.40
56495;PMS5003;42804;55.762;38.084;2022-12-29T09:37:50;21.00;15.00;7.40
56495;PMS5003;42804;55.762;38.084;2022-12-29T09:40:22;19.40;17.20;10.00
56495;PMS5003;42804;55.762;38.084;2022-12-29T09:42:57;11.80;10.80;5.20
56495;PMS5003;42804;55.762;38.084;2022-12-29T09:45:29;16.60;12.20;7.40
56495;PMS5003;42804;55.762;38.084;2022-12-29T09:47:59;25.00;22.00;13.00
56495;PMS5003;42804;55.762;38.084;2022-12-29T09:50:36;13.20;12.00;6.40
56495;PMS5003;42804;55.762;38.084;2022-12-29T09:53:08;25.00;23.20;13.00
56495;PMS5003;42804;55.762;38.084;2022-12-29T09:55:40;29.40;25.40;16.00
56495;PMS5003;42804;55.762;38.084;2022-12-29T09:58:11;25.40;22.40;15.00
56495;PMS5003;42804;55.762;38.084;2022-12-29T10:00:41;28.20;23.60;13.40
56495;PMS5003;42804;55.762;38.084;2022-12-29T10:03:22;26.20;23.20;15.20
56495;PMS5003;42804;55.762;38.084;2022-12-29T10:05:55;23.60;21.20;15.40
56495;PMS5003;42804;55.762;38.084;2022-12-29T10:08:29;24.60;23.60;14.40
56495;PMS5003;42804;55.762;38.084;2022-12-29T10:11:02;29.60;25.80;15.40
56495;PMS5003;42804;55.762;38.084;2022-12-29T10:13:38;30.80;27.60;15.60
56495;PMS5003;42804;55.762;38.084;2022-12-29T10:16:09;36.60;30.40;19.60
56495;PMS5003;42804;55.762;38.084;2022-12-29T10:21:29;33.40;27.40;17.60
56495;PMS5003;42804;55.762;38.084;2022-12-29T10:24:03;34.60;27.40;18.40
56495;PMS5003;42804;55.762;38.084;2022-12-29T10:26:33;38.40;30.80;18.60
56495;PMS5003;42804;55.762;38.084;2022-12-29T10:29:05;31.40;27.00;15.60
56495;PMS5003;42804;55.762;38.084;2022-12-29T10:31:37;29.80;27.00;15.60
56495;PMS5003;42804;55.762;38.084;2022-12-29T10:34:10;32.60;23.60;16.00
56495;PMS5003;42804;55.762;38.084;2022-12-29T10:36:43;27.60;21.60;13.20
56495;PMS5003;42804;55.762;38.084;2022-12-29T10:39:15;29.20;22.80;15.40
56495;PMS5003;42804;55.762;38.084;2022-12-29T10:41:46;29.40;24.80;16.00
56495;PMS5003;42804;55.762;38.084;2022-12-29T10:44:16;27.60;24.40;16.40
56495;PMS5003;42804;55.762;38.084;2022-12-29T10:46:46;28.40;23.20;15.60
56495;PMS5003;42804;55.762;38.084;2022-12-29T10:49:20;34.80;25.80;15.80
56495;PMS5003;42804;55.762;38.084;2022-12-29T10:51:49;37.60;31.00;16.80
56495;PMS5003;42804;55.762;38.084;2022-12-29T10:54:20;34.40;29.00;18.40
56495;PMS5003;42804;55.762;38.084;2022-12-29T10:56:50;32.60;26.60;16.00
56495;PMS5003;42804;55.762;38.084;2022-12-29T10:59:20;24.40;19.80;13.00
56495;PMS5003;42804;55.762;38.084;2022-12-29T11:01:52;31.60;27.20;15.40
56495;PMS5003;42804;55.762;38.084;2022-12-29T11:04:34;32.60;29.00;17.60
56495;PMS5003;42804;55.762;38.084;2022-12-29T11:07:04;30.80;25.80;15.40
56495;PMS5003;42804;55.762;38.084;2022-12-29T11:09:41;36.20;31.00;19.40
56495;PMS5003;42804;55.762;38.084;2022-12-29T11:12:21;39.40;31.60;21.00
56495;PMS5003;42804;55.762;38.084;2022-12-29T11:15:00;29.80;29.40;21.00
56495;PMS5003;42804;55.762;38.084;2022-12-29T11:17:29;43.20;37.60;24.40
56495;PMS5003;42804;55.762;38.084;2022-12-29T11:19:57;36.00;33.00;18.00
56495;PMS5003;42804;55.762;38.084;2022-12-29T11:22:28;33.80;30.20;19.00
56495;PMS5003;42804;55.762;38.084;2022-12-29T11:25:05;37.00;29.20;19.00
56495;PMS5003;42804;55.762;38.084;2022-12-29T11:27:34;40.40;33.20;18.20
56495;PMS5003;42804;55.762;38.084;2022-12-29T11:30:02;39.60;32.20;16.80
56495;PMS5003;42804;55.762;38.084;2022-12-29T11:32:50;34.00;24.60;11.20
56495;PMS5003;42804;55.762;38.084;2022-12-29T11:35:30;39.00;31.80;15.80
56495;PMS5003;42804;55.762;38.084;2022-12-29T11:38:00;37.80;32.20;18.20
56495;PMS5003;42804;55.762;38.084;2022-12-29T11:40:29;32.00;26.20;13.00
56495;PMS5003;42804;55.762;38.084;2022-12-29T11:42:58;48.40;36.20;19.00
56495;PMS5003;42804;55.762;38.084;2022-12-29T11:45:30;38.60;33.80;22.00
56495;PMS5003;42804;55.762;38.084;2022-12-29T11:48:01;35.60;33.60;20.60
56495;PMS5003;42804;55.762;38.084;2022-12-29T11:50:34;47.80;36.20;22.20
56495;PMS5003;42804;55.762;38.084;2022-12-29T11:53:05;37.20;31.00;13.00
56495;PMS5003;42804;55.762;38.084;2022-12-29T11:55:38;48.40;41.20;22.40
56495;PMS5003;42804;55.762;38.084;2022-12-29T11:58:06;51.20;45.00;26.20
56495;PMS5003;42804;55.762;38.084;2022-12-29T12:00:34;47.00;38.00;22.00
56495;PMS5003;42804;55.762;38.084;2022-12-29T12:03:07;36.20;32.20;20.60
56495;PMS5003;42804;55.762;38.084;2022-12-29T12:05:40;52.40;39.00;23.80
56495;PMS5003;42804;55.762;38.084;2022-12-29T12:08:13;46.20;38.40;25.00
56495;PMS5003;42804;55.762;38.084;2022-12-29T12:10:48;44.00;39.80;23.20
56495;PMS5003;42804;55.762;38.084;2022-12-29T12:13:19;53.00;42.20;27.20
56495;PMS5003;42804;55.762;38.084;2022-12-29T12:15:51;44.40;37.80;22.00
56495;PMS5003;42804;55.762;38.084;2022-12-29T12:18:30;41.00;37.60;21.40
56495;PMS5003;42804;55.762;38.084;2022-12-29T12:21:04;34.20;26.40;17.60
56495;PMS5003;42804;55.762;38.084;2022-12-29T12:23:38;43.00;37.00;24.20
56495;PMS5003;42804;55.762;38.084;2022-12-29T12:26:10;39.20;31.40;15.80
56495;PMS5003;42804;55.762;38.084;2022-12-29T12:28:42;31.40;27.40;14.20
56495;PMS5003;42804;55.762;38.084;2022-12-29T12:31:16;51.60;38.20;25.00
56495;PMS5003;42804;55.762;38.084;2022-12-29T12:33:46;39.20;36.00;24.00
56495;PMS5003;42804;55.762;38.084;2022-12-29T12:36:21;39.20;34.40;19.00
56495;PMS5003;42804;55.762;38.084;2022-12-29T12:38:56;46.60;37.00;24.00
56495;PMS5003;42804;55.762;38.084;2022-12-29T12:41:32;46.20;40.40;22.80
56495;PMS5003;42804;55.762;38.084;2022-12-29T12:44:09;44.60;36.80;21.60
56495;PMS5003;42804;55.762;38.084;2022-12-29T12:49:29;42.40;32.60;21.20
56495;PMS5003;42804;55.762;38.084;2022-12-29T12:52:01;37.00;35.40;21.80
56495;PMS5003;42804;55.762;38.084;2022-12-29T12:54:38;35.60;30.00;20.60
56495;PMS5003;42804;55.762;38.084;2022-12-29T12:57:10;36.40;31.00;18.00
56495;PMS5003;42804;55.762;38.084;2022-12-29T12:59:46;44.80;32.20;22.40
56495;PMS5003;42804;55.762;38.084;2022-12-29T13:02:23;35.20;31.60;17.40
56495;PMS5003;42804;55.762;38.084;2022-12-29T13:04:58;29.80;24.60;10.80
56495;PMS5003;42804;55.762;38.084;2022-12-29T13:07:39;29.20;25.00;13.00
56495;PMS5003;42804;55.762;38.084;2022-12-29T13:13:10;38.20;36.60;22.80
56495;PMS5003;42804;55.762;38.084;2022-12-29T13:15:45;43.80;34.00;21.00
56495;PMS5003;42804;55.762;38.084;2022-12-29T13:18:18;30.60;28.00;14.20
56495;PMS5003;42804;55.762;38.084;2022-12-29T13:20:52;40.60;33.20;20.20
56495;PMS5003;42804;55.762;38.084;2022-12-29T13:23:23;32.80;27.20;16.80
56495;PMS5003;42804;55.762;38.084;2022-12-29T13:25:55;41.60;31.80;19.00
56495;PMS5003;42804;55.762;38.084;2022-12-29T13:28:30;42.60;31.80;18.60
56495;PMS5003;42804;55.762;38.084;2022-12-29T13:31:00;42.60;36.80;20.60
56495;PMS5003;42804;55.762;38.084;2022-12-29T13:33:34;40.80;28.40;17.60
56495;PMS5003;42804;55.762;38.084;2022-12-29T13:36:05;37.20;30.40;21.00
56495;PMS5003;42804;55.762;38.084;2022-12-29T13:38:38;37.00;29.60;15.60
56495;PMS5003;42804;55.762;38.084;2022-12-29T13:41:08;44.60;32.00;21.00
56495;PMS5003;42804;55.762;38.084;2022-12-29T13:43:39;36.00;31.40;18.80
56495;PMS5003;42804;55.762;38.084;2022-12-29T13:46:11;36.20;31.60;15.60
56495;PMS5003;42804;55.762;38.084;2022-12-29T13:48:43;39.20;34.00;21.80
56495;PMS5003;42804;55.762;38.084;2022-12-29T13:51:14;31.40;25.80;13.60
56495;PMS5003;42804;55.762;38.084;2022-12-29T13:53:55;36.80;30.00;18.00
56495;PMS5003;42804;55.762;38.084;2022-12-29T13:56:30;30.40;23.80;12.00
56495;PMS5003;42804;55.762;38.084;2022-12-29T13:59:03;37.40;31.20;19.00
56495;PMS5003;42804;55.762;38.084;2022-12-29T14:01:34;30.20;25.40;15.60
56495;PMS5003;42804;55.762;38.084;2022-12-29T14:04:08;36.40;32.20;20.60
56495;PMS5003;42804;55.762;38.084;2022-12-29T14:06:38;27.00;18.40;8.40
56495;PMS5003;42804;55.762;38.084;2022-12-29T14:11:53;39.40;35.60;21.60
56495;PMS5003;42804;55.762;38.084;2022-12-29T14:14:23;31.80;26.60;16.00
56495;PMS5003;42804;55.762;38.084;2022-12-29T14:16:53;44.40;37.20;21.40
56495;PMS5003;42804;55.762;38.084;2022-12-29T14:19:23;43.60;36.60;19.00
56495;PMS5003;42804;55.762;38.084;2022-12-29T14:21:52;48.40;36.00;22.00
56495;PMS5003;42804;55.762;38.084;2022-12-29T14:24:37;50.40;42.20;24.00
56495;PMS5003;42804;55.762;38.084;2022-12-29T14:29:54;49.80;40.00;24.80
56495;PMS5003;42804;55.762;38.084;2022-12-29T14:32:35;42.80;37.00;20.60
56495;PMS5003;42804;55.762;38.084;2022-12-29T14:37:50;41.40;34.80;21.20
56495;PMS5003;42804;55.762;38.084;2022-12-29T14:40:33;46.20;36.00;21.80
56495;PMS5003;42804;55.762;38.084;2022-12-29T14:43:01;45.80;38.40;23.20
56495;PMS5003;42804;55.762;38.084;2022-12-29T14:45:41;39.20;32.20;18.60